createdAt,value
2022-09-20T00:02:10.091Z,79.50
2022-09-20T00:04:39.553Z,79.40
2022-09-20T00:07:07.589Z,79.40
2022-09-20T00:09:35.628Z,79.40
2022-09-20T00:12:03.719Z,79.40
2022-09-20T00:14:32.189Z,79.40
2022-09-20T00:17:00.324Z,79.40
2022-09-20T00:19:28.584Z,79.30
2022-09-20T00:21:58.022Z,79.40
2022-09-20T00:24:26.367Z,79.40
2022-09-20T00:26:55.185Z,79.40
2022-09-20T00:29:23.447Z,79.40
2022-09-20T00:31:51.559Z,79.50
2022-09-20T00:34:36.961Z,79.50
2022-09-20T00:37:06.404Z,79.40
2022-09-20T00:39:34.425Z,79.40
2022-09-20T00:42:02.460Z,79.40
2022-09-20T00:44:44.127Z,79.40
2022-09-20T00:47:15.233Z,79.50
2022-09-20T00:49:43.340Z,79.40
2022-09-20T00:52:12.743Z,79.50
2022-09-20T00:54:40.841Z,79.40
2022-09-20T00:57:08.888Z,79.40
2022-09-20T00:59:38.234Z,79.40
2022-09-20T01:02:09.598Z,79.50
2022-09-20T01:04:39.018Z,80.40
2022-09-20T01:07:07.222Z,79.40
2022-09-20T01:09:36.665Z,79.40
2022-09-20T01:12:06.344Z,79.40
2022-09-20T01:14:34.531Z,79.40
2022-09-20T01:17:04.281Z,79.40
2022-09-20T01:19:35.777Z,79.40
2022-09-20T01:22:05.174Z,79.40
2022-09-20T01:24:35.604Z,79.30
2022-09-20T01:27:11.655Z,79.40
2022-09-20T01:30:00.751Z,79.40
2022-09-20T01:32:32.001Z,79.40
2022-09-20T01:35:01.030Z,79.30
2022-09-20T01:37:29.839Z,79.30
2022-09-20T01:40:03.202Z,79.30
2022-09-20T01:42:34.319Z,79.30
2022-09-20T01:45:06.117Z,79.30
2022-09-20T01:47:36.951Z,79.20
2022-09-20T01:50:10.622Z,79.20
2022-09-20T01:52:57.156Z,79.30
2022-09-20T01:55:43.589Z,79.20
2022-09-20T01:58:33.642Z,79.20
2022-09-20T02:01:24.547Z,79.20
2022-09-20T02:04:09.710Z,79.20
2022-09-20T02:06:46.928Z,79.10
2022-09-20T02:09:50.763Z,79.20
2022-09-20T02:12:40.739Z,79.20
2022-09-20T02:15:12.722Z,79.20
2022-09-20T02:17:47.489Z,79.10
2022-09-20T02:20:20.616Z,79.10
2022-09-20T02:23:24.194Z,79.10
2022-09-20T02:26:07.344Z,79.10
2022-09-20T02:28:46.237Z,79.10
2022-09-20T02:31:17.855Z,79.20
2022-09-20T02:33:59.587Z,79.30
2022-09-20T02:36:36.066Z,79.30
2022-09-20T02:39:08.087Z,79.40
2022-09-20T02:41:55.828Z,79.30
2022-09-20T02:44:30.705Z,79.40
2022-09-20T02:47:03.128Z,79.40
2022-09-20T02:49:36.300Z,79.30
2022-09-20T02:52:08.285Z,79.30
2022-09-20T02:54:41.986Z,79.30
2022-09-20T02:57:15.823Z,79.20
2022-09-20T02:59:47.324Z,79.20
2022-09-20T03:02:21.196Z,79.20
2022-09-20T03:04:56.511Z,79.20
2022-09-20T03:07:27.667Z,79.10
2022-09-20T03:10:00.099Z,79.10
2022-09-20T03:12:33.372Z,79.10
2022-09-20T03:15:05.880Z,79.10
2022-09-20T03:17:42.330Z,79.10
2022-09-20T03:20:18.564Z,79.00
2022-09-20T03:22:53.275Z,79.00
2022-09-20T03:25:40.459Z,79.00
2022-09-20T03:28:16.035Z,78.90
2022-09-20T03:30:51.850Z,78.90
2022-09-20T03:33:24.444Z,79.00
2022-09-20T03:36:00.111Z,78.90
2022-09-20T03:38:40.844Z,78.90
2022-09-20T03:41:37.183Z,78.90
2022-09-20T03:44:13.697Z,78.90
2022-09-20T03:46:45.088Z,78.80
2022-09-20T03:49:43.054Z,78.70
2022-09-20T03:52:16.801Z,78.70
2022-09-20T03:55:09.706Z,78.60
2022-09-20T03:57:52.563Z,78.70
2022-09-20T04:00:31.172Z,78.60
2022-09-20T04:03:15.061Z,78.60
2022-09-20T04:05:50.383Z,78.60
2022-09-20T04:08:26.507Z,78.60
2022-09-20T04:10:59.664Z,78.60
2022-09-20T04:13:36.127Z,78.60
2022-09-20T04:16:13.926Z,78.70
2022-09-20T04:18:44.577Z,78.60
2022-09-20T04:21:15.318Z,78.60
2022-09-20T04:23:48.774Z,78.50
2022-09-20T04:26:17.270Z,78.50
2022-09-20T04:28:48.669Z,78.50
2022-09-20T04:31:31.639Z,78.40
2022-09-20T04:33:59.712Z,78.40
2022-09-20T04:36:36.639Z,78.40
2022-09-20T04:39:13.221Z,78.40
2022-09-20T04:42:16.787Z,78.40
2022-09-20T04:45:05.931Z,78.30
2022-09-20T04:47:46.010Z,78.30
2022-09-20T04:50:40.146Z,78.30
2022-09-20T04:53:32.400Z,78.30
2022-09-20T04:56:04.148Z,78.20
2022-09-20T04:59:11.257Z,78.30
2022-09-20T05:02:19.343Z,78.20
2022-09-20T05:05:26.894Z,78.30
2022-09-20T05:08:36.869Z,78.30
2022-09-20T05:11:30.428Z,78.30
2022-09-20T05:14:06.196Z,78.30
2022-09-20T05:16:43.334Z,78.30
2022-09-20T05:19:21.729Z,78.40
2022-09-20T05:21:54.229Z,78.30
2022-09-20T05:24:28.567Z,79.30
2022-09-20T05:27:08.424Z,78.40
2022-09-20T05:29:40.554Z,78.50
2022-09-20T05:32:13.012Z,78.60
2022-09-20T05:34:44.068Z,78.60
2022-09-20T05:37:17.569Z,78.50
2022-09-20T05:39:48.761Z,78.50
2022-09-20T05:42:19.850Z,78.40
2022-09-20T05:45:01.972Z,78.40
2022-09-20T05:47:36.498Z,78.40
2022-09-20T05:50:25.629Z,78.40
2022-09-20T05:52:57.893Z,78.50
2022-09-20T05:55:41.262Z,78.50
2022-09-20T05:58:18.622Z,78.50
2022-09-20T06:00:48.600Z,78.40
2022-09-20T06:03:19.803Z,78.50
2022-09-20T06:05:51.391Z,78.30
2022-09-20T06:08:39.994Z,78.40
2022-09-20T06:11:15.947Z,78.50
2022-09-20T06:14:00.271Z,78.50
2022-09-20T06:16:32.568Z,78.50
2022-09-20T06:19:06.050Z,78.50
2022-09-20T06:21:42.668Z,78.40
2022-09-20T06:24:19.641Z,78.40
2022-09-20T06:26:47.750Z,78.30
2022-09-20T06:29:17.233Z,78.20
2022-09-20T06:31:45.355Z,78.30
2022-09-20T06:34:14.752Z,78.20
2022-09-20T06:37:02.725Z,78.20
2022-09-20T06:40:06.694Z,78.20
2022-09-20T06:42:34.834Z,78.30
2022-09-20T06:45:04.555Z,77.90
2022-09-20T06:47:35.733Z,78.40
2022-09-20T06:50:07.462Z,78.20
2022-09-20T06:52:35.636Z,78.00
2022-09-20T06:55:07.371Z,77.90
2022-09-20T06:57:37.819Z,77.80
2022-09-20T07:00:11.518Z,77.80
2022-09-20T07:02:39.660Z,77.90
2022-09-20T07:05:11.418Z,77.80
2022-09-20T07:07:39.459Z,77.70
2022-09-20T07:10:07.865Z,77.60
2022-09-20T07:12:36.169Z,77.60
2022-09-20T07:15:04.544Z,77.50
2022-09-20T07:17:34.138Z,77.50
2022-09-20T07:20:02.514Z,77.50
2022-09-20T07:22:30.656Z,77.50
2022-09-20T07:25:02.529Z,77.50
2022-09-20T07:27:30.629Z,77.30
2022-09-20T07:29:58.737Z,77.50
2022-09-20T07:32:27.220Z,77.40
2022-09-20T07:34:57.081Z,77.50
2022-09-20T07:37:25.223Z,77.60
2022-09-20T07:39:53.309Z,77.70
2022-09-20T07:42:21.405Z,77.90
2022-09-20T07:44:50.761Z,77.90
2022-09-20T07:47:18.821Z,77.90
2022-09-20T07:49:46.900Z,77.80
2022-09-20T07:52:16.306Z,77.90
2022-09-20T07:54:45.846Z,78.00
2022-09-20T07:57:13.927Z,78.00
2022-09-20T07:59:41.953Z,78.20
2022-09-20T08:02:11.442Z,79.10
2022-09-20T08:04:39.500Z,80.40
2022-09-20T08:07:07.521Z,80.80
2022-09-20T08:09:37.239Z,81.70
2022-09-20T08:14:53.778Z,81.10
2022-09-20T08:17:21.831Z,81.50
2022-09-20T08:19:49.887Z,81.40
2022-09-20T08:22:17.910Z,81.20
2022-09-20T08:24:47.483Z,81.10
2022-09-20T08:27:15.557Z,80.80
2022-09-20T08:29:43.636Z,80.70
2022-09-20T08:32:12.209Z,80.50
2022-09-20T08:34:40.662Z,80.00
2022-09-20T08:37:08.733Z,79.80
2022-09-20T08:46:25.332Z,80.40
2022-09-20T08:48:53.647Z,79.50
2022-09-20T08:51:23.241Z,79.40
2022-09-20T08:53:52.346Z,79.30
2022-09-20T08:56:20.630Z,79.40
2022-09-20T08:58:48.722Z,79.50
2022-09-20T09:01:21.895Z,79.60
2022-09-20T09:03:52.458Z,79.60
2022-09-20T09:06:21.342Z,79.70
2022-09-20T09:08:53.823Z,79.60
2022-09-20T09:11:23.406Z,79.70
2022-09-20T09:13:54.054Z,79.60
2022-09-20T09:16:28.842Z,79.60
2022-09-20T09:19:36.040Z,79.50
2022-09-20T09:22:05.163Z,79.50
2022-09-20T09:24:33.232Z,79.40
2022-09-20T09:27:09.763Z,79.40
2022-09-20T09:29:37.837Z,79.30
2022-09-20T09:32:24.549Z,79.30
2022-09-20T09:34:52.636Z,79.10
2022-09-20T09:37:29.066Z,79.00
2022-09-20T09:40:16.384Z,78.90
2022-09-20T09:42:54.643Z,79.10
2022-09-20T09:45:28.151Z,79.10
2022-09-20T09:47:57.925Z,79.00
2022-09-20T09:50:27.027Z,79.00
2022-09-20T09:53:07.473Z,78.90
2022-09-20T09:55:44.885Z,79.00
2022-09-20T09:58:16.027Z,79.30
2022-09-20T10:00:46.690Z,79.50
2022-09-20T10:03:26.538Z,80.30
2022-09-20T10:06:04.031Z,80.80
2022-09-20T10:08:35.341Z,81.30
2022-09-20T10:11:08.712Z,81.20
2022-09-20T10:13:40.803Z,81.00
2022-09-20T10:16:13.514Z,80.80
2022-09-20T10:18:47.419Z,80.60
2022-09-20T10:21:23.217Z,80.50
2022-09-20T10:24:03.547Z,80.40
2022-09-20T10:26:45.101Z,80.30
2022-09-20T10:29:18.180Z,80.20
2022-09-20T10:31:57.379Z,80.20
2022-09-20T10:35:04.114Z,79.90
2022-09-20T10:37:39.717Z,80.10
2022-09-20T10:40:11.566Z,79.80
2022-09-20T10:43:00.682Z,79.60
2022-09-20T10:45:59.626Z,79.30
2022-09-20T10:48:22.616Z,79.30
2022-09-20T10:50:52.911Z,79.10
2022-09-20T10:53:29.719Z,79.10
2022-09-20T10:56:07.258Z,78.90
2022-09-20T10:59:20.554Z,78.80
2022-09-20T11:01:55.262Z,78.60
2022-09-20T11:04:50.303Z,78.40
2022-09-20T11:07:19.375Z,78.30
2022-09-20T11:09:52.224Z,78.20
2022-09-20T11:12:24.802Z,79.20
2022-09-20T11:14:54.967Z,78.20
2022-09-20T11:17:24.969Z,78.10
2022-09-20T11:19:57.462Z,78.00
2022-09-20T11:22:27.427Z,78.00
2022-09-20T11:24:58.892Z,78.00
2022-09-20T11:27:29.742Z,77.90
2022-09-20T11:30:00.998Z,77.90
2022-09-20T11:32:32.772Z,77.80
2022-09-20T11:35:03.043Z,77.80
2022-09-20T11:37:33.626Z,77.80
2022-09-20T11:40:13.196Z,77.80
2022-09-20T11:42:42.370Z,77.80
2022-09-20T11:45:12.775Z,77.70
2022-09-20T11:47:54.496Z,77.70
2022-09-20T11:50:51.966Z,77.70
2022-09-20T11:53:33.262Z,77.70
2022-09-20T11:56:07.215Z,77.60
2022-09-20T11:58:48.861Z,77.50
2022-09-20T12:01:18.294Z,77.40
2022-09-20T12:03:46.435Z,77.30
2022-09-20T12:06:25.876Z,77.20
2022-09-20T12:08:54.154Z,77.30
2022-09-20T12:11:30.507Z,77.20
2022-09-20T12:14:02.604Z,77.20
2022-09-20T12:16:39.104Z,77.10
2022-09-20T12:19:08.442Z,77.10
2022-09-20T12:22:14.227Z,77.10
2022-09-20T12:24:45.518Z,77.10
2022-09-20T12:27:24.522Z,76.90
2022-09-20T12:30:04.644Z,76.90
2022-09-20T12:32:55.071Z,76.90
2022-09-20T12:35:57.431Z,76.90
2022-09-20T12:38:37.539Z,76.90
2022-09-20T12:41:08.955Z,76.80
2022-09-20T12:43:39.994Z,76.80
2022-09-20T12:46:11.995Z,76.80
2022-09-20T12:48:40.365Z,76.70
2022-09-20T12:51:36.863Z,76.80
2022-09-20T12:54:07.562Z,77.10
2022-09-20T12:56:36.981Z,77.30
2022-09-20T12:59:07.446Z,77.40
2022-09-20T13:01:40.325Z,77.40
2022-09-20T13:04:56.802Z,77.10
2022-09-20T13:07:43.799Z,77.40
2022-09-20T13:10:35.008Z,77.10
2022-09-20T13:13:13.829Z,77.30
2022-09-20T13:15:48.696Z,77.40
2022-09-20T13:18:18.838Z,77.30
2022-09-20T13:20:46.870Z,77.30
2022-09-20T13:23:20.308Z,77.50
2022-09-20T13:25:48.834Z,77.40
2022-09-20T13:28:22.969Z,78.20
2022-09-20T13:30:52.426Z,77.10
2022-09-20T13:33:23.143Z,77.20
2022-09-20T13:35:52.398Z,77.20
2022-09-20T13:38:25.098Z,77.10
2022-09-20T13:40:54.107Z,77.00
2022-09-20T13:43:28.258Z,77.10
2022-09-20T13:45:58.932Z,76.90
2022-09-20T13:48:28.277Z,76.80
2022-09-20T13:50:56.489Z,76.70
2022-09-20T13:53:40.483Z,76.70
2022-09-20T13:56:11.359Z,76.60
2022-09-20T13:58:39.409Z,76.50
2022-09-20T14:01:18.176Z,76.60
2022-09-20T14:03:46.599Z,76.60
2022-09-20T14:06:15.988Z,76.50
2022-09-20T14:08:45.428Z,76.50
2022-09-20T14:11:15.927Z,76.40
2022-09-20T14:13:44.884Z,76.40
2022-09-20T14:16:15.118Z,76.40
2022-09-20T14:18:43.258Z,76.30
2022-09-20T14:21:11.944Z,76.20
2022-09-20T14:23:50.988Z,76.20
2022-09-20T14:26:27.839Z,76.30
2022-09-20T14:28:56.028Z,76.40
2022-09-20T14:31:28.849Z,76.30
2022-09-20T14:33:59.203Z,76.40
2022-09-20T14:36:28.425Z,76.40
2022-09-20T14:38:57.865Z,76.20
2022-09-20T14:41:28.819Z,76.50
2022-09-20T14:43:57.798Z,76.70
2022-09-20T14:46:33.879Z,76.90
2022-09-20T14:49:20.999Z,76.80
2022-09-20T14:51:49.245Z,76.90
2022-09-20T14:54:25.472Z,76.60
2022-09-20T14:56:54.130Z,76.60
2022-09-20T14:59:24.953Z,76.50
2022-09-20T15:02:00.099Z,77.50
2022-09-20T15:04:28.688Z,76.80
2022-09-20T15:06:56.923Z,76.60
2022-09-20T15:09:25.133Z,76.40
2022-09-20T15:12:03.394Z,76.40
2022-09-20T15:14:37.004Z,76.40
2022-09-20T15:17:07.123Z,76.60
2022-09-20T15:19:35.186Z,76.60
2022-09-20T15:22:03.404Z,76.70
2022-09-20T15:24:31.432Z,76.80
2022-09-20T15:26:59.576Z,76.70
2022-09-20T15:29:27.673Z,76.70
2022-09-20T15:31:55.761Z,76.60
2022-09-20T15:34:25.274Z,76.60
2022-09-20T15:36:54.178Z,76.30
2022-09-20T15:39:23.697Z,76.50
2022-09-20T15:41:53.049Z,76.50
2022-09-20T15:44:21.317Z,76.50
2022-09-20T15:46:50.956Z,76.60
2022-09-20T15:49:19.355Z,76.60
2022-09-20T15:51:49.038Z,76.50
2022-09-20T15:54:17.133Z,76.50
2022-09-20T15:56:45.262Z,76.40
2022-09-20T15:59:15.321Z,76.40
2022-09-20T16:01:45.638Z,76.30
2022-09-20T16:04:14.643Z,76.30
2022-09-20T16:06:43.927Z,76.30
2022-09-20T16:09:15.384Z,76.40
2022-09-20T16:11:43.435Z,76.00
2022-09-20T16:14:11.685Z,76.20
2022-09-20T16:16:40.814Z,76.30
2022-09-20T16:19:20.886Z,76.30
2022-09-20T16:21:55.023Z,76.40
2022-09-20T16:24:26.987Z,76.40
2022-09-20T16:26:55.063Z,76.30
2022-09-20T16:29:25.117Z,76.20
2022-09-20T16:31:53.497Z,75.90
2022-09-20T16:34:22.894Z,76.10
2022-09-20T16:36:51.722Z,76.10
2022-09-20T16:39:20.183Z,76.00
2022-09-20T16:41:50.644Z,76.00
2022-09-20T16:44:18.718Z,76.00
2022-09-20T16:46:47.274Z,76.10
2022-09-20T16:49:16.757Z,76.10
2022-09-20T16:51:46.252Z,76.10
2022-09-20T16:54:15.812Z,76.10
2022-09-20T16:56:45.272Z,76.10
2022-09-20T16:59:15.631Z,76.10
2022-09-20T17:01:44.490Z,76.10
2022-09-20T17:04:14.285Z,76.10
2022-09-20T17:06:43.282Z,76.20
2022-09-20T17:09:11.563Z,76.30
2022-09-20T17:11:41.382Z,76.30
2022-09-20T17:14:10.048Z,76.20
2022-09-20T17:16:40.913Z,77.10
2022-09-20T17:19:11.025Z,76.20
2022-09-20T17:21:39.865Z,76.10
2022-09-20T17:24:08.388Z,76.20
2022-09-20T17:26:38.263Z,76.30
2022-09-20T17:29:07.676Z,76.70
2022-09-20T17:31:37.377Z,76.70
2022-09-20T17:34:07.765Z,76.70
2022-09-20T17:36:39.593Z,77.00
2022-09-20T17:39:09.993Z,76.90
2022-09-20T17:41:38.432Z,76.60
2022-09-20T17:44:08.274Z,76.50
2022-09-20T17:46:37.108Z,76.60
2022-09-20T17:49:07.479Z,76.80
2022-09-20T17:51:36.869Z,76.90
2022-09-20T17:54:05.068Z,77.10
2022-09-20T17:56:33.447Z,77.00
2022-09-20T17:59:02.243Z,77.00
2022-09-20T18:01:30.904Z,77.10
2022-09-20T18:03:59.832Z,77.20
2022-09-20T18:06:30.122Z,77.10
2022-09-20T18:08:58.922Z,77.10
2022-09-20T18:11:28.966Z,77.10
2022-09-20T18:13:57.055Z,77.30
2022-09-20T18:16:25.105Z,77.30
2022-09-20T18:18:53.275Z,77.30
2022-09-20T18:21:22.077Z,77.30
2022-09-20T18:23:52.124Z,77.10
2022-09-20T18:26:23.900Z,77.20
2022-09-20T18:28:53.418Z,77.30
2022-09-20T18:31:24.605Z,77.40
2022-09-20T18:33:59.537Z,77.40
2022-09-20T18:36:28.187Z,77.40
2022-09-20T18:38:57.817Z,77.40
2022-09-20T18:41:27.000Z,77.50
2022-09-20T18:43:55.978Z,77.40
2022-09-20T18:46:27.151Z,77.40
2022-09-20T18:48:55.897Z,77.40
2022-09-20T18:51:24.932Z,77.50
2022-09-20T18:53:53.287Z,77.50
2022-09-20T18:56:24.543Z,77.40
2022-09-20T18:58:53.764Z,77.50
2022-09-20T19:01:55.275Z,77.60
2022-09-20T19:04:47.099Z,77.60
2022-09-20T19:07:17.840Z,77.50
2022-09-20T19:09:49.590Z,77.50
2022-09-20T19:12:22.052Z,77.60
2022-09-20T19:14:58.077Z,77.60
2022-09-20T19:17:35.027Z,77.60
2022-09-20T19:20:04.007Z,77.60
2022-09-20T19:22:36.122Z,77.60
2022-09-20T19:25:12.394Z,77.60
2022-09-20T19:27:42.528Z,77.50
2022-09-20T19:30:14.570Z,77.60
2022-09-20T19:32:43.167Z,77.60
2022-09-20T19:35:17.814Z,77.60
2022-09-20T19:37:54.306Z,77.60
2022-09-20T19:40:26.319Z,77.60
2022-09-20T19:43:03.198Z,77.50
2022-09-20T19:45:34.603Z,77.60
2022-09-20T19:48:06.162Z,77.70
2022-09-20T19:50:36.722Z,77.60
2022-09-20T19:53:05.176Z,77.70
2022-09-20T19:55:33.800Z,77.80
2022-09-20T19:58:03.849Z,78.20
2022-09-20T20:00:34.331Z,78.50
2022-09-20T20:03:03.109Z,78.50
2022-09-20T20:05:31.692Z,78.60
2022-09-20T20:08:15.357Z,78.20
2022-09-20T20:10:49.819Z,78.10
2022-09-20T20:13:39.914Z,78.10
2022-09-20T20:16:11.888Z,77.80
2022-09-20T20:18:41.943Z,77.80
2022-09-20T20:21:14.238Z,77.70
2022-09-20T20:23:59.765Z,77.70
2022-09-20T20:26:27.819Z,78.30
2022-09-20T20:28:57.238Z,78.10
2022-09-20T20:31:25.355Z,78.00
2022-09-20T20:33:54.717Z,78.00
2022-09-20T20:36:22.856Z,78.10
2022-09-20T20:38:53.057Z,78.10
2022-09-20T20:41:21.718Z,78.10
2022-09-20T20:43:51.087Z,77.90
2022-09-20T20:46:20.627Z,78.10
2022-09-20T20:48:48.909Z,78.20
2022-09-20T20:51:17.894Z,78.10
2022-09-20T20:53:47.221Z,78.20
2022-09-20T20:56:16.732Z,78.40
2022-09-20T20:58:45.213Z,78.20
2022-09-20T21:01:14.649Z,77.90
2022-09-20T21:03:45.870Z,78.10
2022-09-20T21:06:14.829Z,78.00
2022-09-20T21:08:48.273Z,78.10
2022-09-20T21:11:18.710Z,78.10
2022-09-20T21:13:48.331Z,77.90
2022-09-20T21:16:17.083Z,77.80
2022-09-20T21:18:47.121Z,77.80
2022-09-20T21:21:16.651Z,78.00
2022-09-20T21:23:45.863Z,78.40
2022-09-20T21:26:15.256Z,78.60
2022-09-20T21:28:44.278Z,78.70
2022-09-20T21:31:13.128Z,78.90
2022-09-20T21:33:42.347Z,79.00
2022-09-20T21:36:13.329Z,79.20
2022-09-20T21:38:41.647Z,79.50
2022-09-20T21:41:11.279Z,79.60
2022-09-20T21:43:41.553Z,79.70
2022-09-20T21:46:13.142Z,79.80
2022-09-20T21:48:41.276Z,80.10
2022-09-20T21:51:11.647Z,80.10
2022-09-20T21:53:40.097Z,80.20
2022-09-20T21:56:09.665Z,80.00
2022-09-20T21:58:39.981Z,80.10
2022-09-20T22:01:10.048Z,80.20
2022-09-20T22:03:39.198Z,80.40
2022-09-20T22:06:13.137Z,80.50
2022-09-20T22:08:42.079Z,80.70
2022-09-20T22:11:15.025Z,80.80
2022-09-20T22:13:43.899Z,80.90
2022-09-20T22:16:12.861Z,81.10
2022-09-20T22:18:41.790Z,81.10
2022-09-20T22:21:10.684Z,81.10
2022-09-20T22:23:40.343Z,81.20
2022-09-20T22:26:10.434Z,81.30
2022-09-20T22:28:38.549Z,81.40
2022-09-20T22:31:10.759Z,81.40
2022-09-20T22:33:42.055Z,81.40
2022-09-20T22:36:10.279Z,81.30
2022-09-20T22:38:39.684Z,81.30
2022-09-20T22:41:07.721Z,81.40
2022-09-20T22:43:35.977Z,81.40
2022-09-20T22:46:05.220Z,81.50
2022-09-20T22:48:33.411Z,81.40
2022-09-20T22:51:01.772Z,81.50
2022-09-20T22:53:30.505Z,81.60
2022-09-20T22:56:07.293Z,81.60
2022-09-20T22:58:36.285Z,81.60
2022-09-20T23:01:06.163Z,81.60
2022-09-20T23:03:34.414Z,81.80
2022-09-20T23:06:03.136Z,81.80
2022-09-20T23:08:33.336Z,82.00
2022-09-20T23:11:02.640Z,82.10
2022-09-20T23:13:32.066Z,82.20
2022-09-20T23:16:00.165Z,82.20
2022-09-20T23:18:28.243Z,82.20
2022-09-20T23:21:00.471Z,82.30
2022-09-20T23:23:28.609Z,82.20
2022-09-20T23:25:56.807Z,82.20
2022-09-20T23:28:27.352Z,82.10
2022-09-20T23:31:04.594Z,82.10
2022-09-20T23:33:32.877Z,82.10
2022-09-20T23:36:00.979Z,82.00
2022-09-20T23:38:29.121Z,82.00
2022-09-20T23:40:57.607Z,81.90
2022-09-20T23:43:25.720Z,81.90
2022-09-20T23:45:53.807Z,81.90
2022-09-20T23:48:23.288Z,81.80
2022-09-20T23:50:51.401Z,81.80
2022-09-20T23:53:19.493Z,81.90
2022-09-20T23:55:47.543Z,81.90
2022-09-20T23:58:15.619Z,81.90
